Time;durP1;ratioP1;P1;durP2;ratioP2;P2;SDS_P1;SDS_P2;PMS_P1;PMS_P2;Temp;Humidity;BMP_temperature;BMP_pressure;BME280_temperature;BME280_humidity;BME280_pressure;Samples;Min_cycle;Max_cycle;Signal;HPM_P1;HPM_P2
2023/12/13 00:00:07;;;;;;;57.60;28.70;;;6.20;99.90;;;6.09;69.07;94778.16;5061774;28;20464;-60
2023/12/13 00:02:34;;;;;;;48.30;28.00;;;6.20;99.90;;;6.10;69.08;94785.03;5064515;28;20462;-59
2023/12/13 00:05:02;;;;;;;58.63;28.23;;;6.20;99.90;;;6.10;68.73;94768.53;5062068;28;20509;-66
2023/12/13 00:07:30;;;;;;;49.13;26.67;;;6.20;99.90;;;6.11;68.89;94757.13;5060812;28;20597;-66
2023/12/13 00:09:58;;;;;;;49.87;27.47;;;6.20;99.90;;;6.10;68.79;94768.53;5057004;28;20794;-60
2023/12/13 00:12:25;;;;;;;54.10;27.23;;;6.20;99.90;;;6.07;68.67;94773.97;5062339;28;20585;-58
2023/12/13 00:14:52;;;;;;;57.17;28.67;;;6.20;99.90;;;6.05;69.05;94792.38;5062991;28;20513;-57
2023/12/13 00:17:20;;;;;;;65.33;27.17;;;6.20;99.90;;;6.03;68.77;94796.88;5060403;28;20895;-66
2023/12/13 00:19:47;;;;;;;58.97;28.53;;;6.20;99.90;;;6.03;68.91;94794.25;5062134;28;20466;-67
2023/12/13 00:22:14;;;;;;;57.60;28.03;;;6.20;99.90;;;6.00;69.00;94789.28;5062804;28;20490;-60
2023/12/13 00:24:43;;;;;;;55.80;28.50;;;6.20;99.90;;;6.00;69.05;94788.44;5060490;28;20459;-60
2023/12/13 00:27:10;;;;;;;62.30;25.93;;;6.10;99.90;;;5.99;69.12;94778.94;5061543;28;20478;-66
2023/12/13 00:29:38;;;;;;;60.70;28.63;;;6.10;99.90;;;5.97;68.90;94773.00;5063388;28;20455;-66
2023/12/13 00:32:06;;;;;;;56.67;28.30;;;6.10;99.90;;;5.95;68.64;94767.03;5063073;28;20995;-61
2023/12/13 00:34:34;;;;;;;52.63;27.87;;;6.10;99.90;;;5.89;69.76;94756.09;5061795;28;20467;-59
2023/12/13 00:37:01;;;;;;;54.73;30.50;;;6.10;99.90;;;5.84;69.14;94758.22;5059957;28;20551;-67
2023/12/13 00:39:28;;;;;;;54.93;28.90;;;6.00;99.90;;;5.79;69.46;94759.50;5056722;28;20498;-60
2023/12/13 00:41:57;;;;;;;52.10;26.77;;;5.90;99.90;;;5.75;69.12;94767.56;5060912;28;20470;-60
2023/12/13 00:44:24;;;;;;;59.17;28.67;;;5.90;99.90;;;5.71;69.77;94758.28;5062702;28;20462;-66
2023/12/13 00:46:51;;;;;;;60.30;28.03;;;5.90;99.90;;;5.68;69.94;94753.28;5056625;28;20510;-60
2023/12/13 00:49:20;;;;;;;59.73;28.60;;;5.90;99.90;;;5.69;69.62;94752.34;5060768;28;20843;-60
2023/12/13 00:51:47;;;;;;;51.17;26.17;;;5.80;99.90;;;5.70;70.12;94746.19;5062261;28;20979;-67
2023/12/13 00:54:14;;;;;;;50.57;26.40;;;5.80;99.90;;;5.70;69.70;94745.34;5059940;28;21010;-65
2023/12/13 00:56:42;;;;;;;55.17;27.60;;;5.80;99.90;;;5.70;69.80;94743.59;5060643;28;20451;-60
2023/12/13 00:59:10;;;;;;;44.40;23.77;;;5.80;99.90;;;5.71;69.95;94740.03;5062799;28;20494;-60
2023/12/13 01:01:44;;;;;;;53.77;26.10;;;5.80;99.90;;;5.74;69.91;94737.19;5057385;28;20448;-66
2023/12/13 01:04:12;;;;;;;44.83;24.37;;;5.90;99.90;;;5.79;69.51;94733.41;5059619;28;20480;-60
2023/12/13 01:06:39;;;;;;;41.87;24.53;;;5.90;99.90;;;5.82;69.61;94734.00;5055841;28;20444;-67
2023/12/13 01:09:06;;;;;;;46.20;24.57;;;5.90;99.90;;;5.86;69.79;94724.19;5063754;28;20451;-67
2023/12/13 01:11:34;;;;;;;48.90;25.30;;;6.00;99.90;;;5.90;70.07;94720.38;5060236;28;20499;-66
2023/12/13 01:14:03;;;;;;;53.37;25.23;;;6.00;99.90;;;5.94;69.46;94711.38;5060146;28;20462;-67
2023/12/13 01:16:33;;;;;;;46.93;25.23;;;6.00;99.90;;;5.96;69.63;94699.03;5060702;28;20447;-67
2023/12/13 01:19:01;;;;;;;54.27;25.63;;;6.10;99.90;;;5.98;69.57;94691.97;5064581;28;20812;-66
2023/12/13 01:21:28;;;;;;;48.10;25.80;;;6.10;99.90;;;5.98;69.96;94691.97;5061546;28;20448;-68
2023/12/13 01:23:56;;;;;;;40.50;22.80;;;6.10;99.90;;;5.98;69.51;94691.97;5061405;28;20451;-66
2023/12/13 01:26:23;;;;;;;43.27;22.17;;;6.10;99.90;;;5.98;69.83;94694.59;5062222;28;20459;-66
2023/12/13 01:28:51;;;;;;;43.67;23.93;;;6.10;99.90;;;6.00;69.35;94686.63;5059790;28;20979;-67
2023/12/13 01:31:18;;;;;;;45.77;25.43;;;6.10;99.90;;;6.00;69.46;94690.06;5058907;28;20454;-60
2023/12/13 01:33:47;;;;;;;47.80;23.60;;;6.10;99.90;;;6.03;69.46;94700.28;5058914;28;20463;-66
2023/12/13 01:36:14;;;;;;;43.37;22.80;;;6.10;99.90;;;6.03;69.80;94715.13;5061072;28;20886;-65
2023/12/13 01:38:41;;;;;;;43.17;23.03;;;6.10;99.90;;;6.02;69.79;94714.28;5060314;28;20879;-58
2023/12/13 01:41:08;;;;;;;45.30;25.67;;;6.10;99.90;;;6.02;69.44;94714.28;5058567;28;20578;-67
2023/12/13 01:43:36;;;;;;;52.57;25.57;;;6.10;99.90;;;6.03;69.37;94715.13;5060758;28;20991;-59
2023/12/13 01:46:03;;;;;;;50.17;26.93;;;6.10;99.90;;;6.04;69.66;94712.41;5060810;28;20447;-59
2023/12/13 01:48:30;;;;;;;50.13;28.30;;;6.20;99.90;;;6.05;69.79;94693.16;5058126;28;20474;-59
2023/12/13 01:50:59;;;;;;;53.73;25.93;;;6.20;99.90;;;6.07;69.62;94688.66;5059259;28;20456;-60
2023/12/13 01:53:27;;;;;;;45.10;24.20;;;6.20;99.90;;;6.05;69.18;94677.50;5059248;28;20526;-60
2023/12/13 01:55:55;;;;;;;45.83;24.13;;;6.20;99.90;;;6.07;69.25;94673.00;5061553;28;20450;-66
2023/12/13 01:58:24;;;;;;;49.30;25.10;;;6.20;99.90;;;6.07;69.39;94675.59;5060958;28;20949;-61
2023/12/13 02:00:52;;;;;;;49.67;25.80;;;6.20;99.90;;;6.09;70.15;94665.88;5059209;28;20460;-60
2023/12/13 02:03:20;;;;;;;53.63;26.30;;;6.20;99.90;;;6.06;69.48;94666.09;5055214;28;20555;-68
2023/12/13 02:05:47;;;;;;;45.43;24.17;;;6.20;99.90;;;6.05;69.81;94661.81;5059844;28;20451;-67
2023/12/13 02:08:16;;;;;;;47.03;26.20;;;6.20;99.90;;;6.04;69.97;94654.97;5060978;28;20479;-67
2023/12/13 02:10:43;;;;;;;49.63;26.00;;;6.20;99.90;;;6.01;69.46;94641.28;5055027;28;20459;-67
2023/12/13 02:13:11;;;;;;;57.47;26.57;;;6.10;99.90;;;5.99;70.01;94641.41;5059232;28;20470;-60
2023/12/13 02:15:39;;;;;;;48.90;24.67;;;6.10;99.90;;;5.99;69.87;94630.16;5060872;28;20444;-68
2023/12/13 02:18:08;;;;;;;49.43;24.87;;;6.10;99.90;;;6.01;69.81;94621.25;5058631;28;20495;-69
2023/12/13 02:20:36;;;;;;;42.83;23.63;;;6.10;99.90;;;6.03;69.70;94627.19;5059851;28;20575;-60
2023/12/13 02:23:04;;;;;;;55.93;25.93;;;6.10;99.90;;;6.06;69.75;94633.94;5060926;28;20475;-67
2023/12/13 02:25:36;;;;;;;45.30;24.40;;;6.20;99.90;;;6.09;70.15;94647.59;5058995;28;20456;-68
2023/12/13 02:28:04;;;;;;;45.90;25.40;;;6.20;99.90;;;6.13;70.04;94640.34;5058776;28;20471;-63
2023/12/13 02:30:31;;;;;;;44.93;24.90;;;6.20;99.90;;;6.15;69.52;94646.31;5054748;28;20499;-60
2023/12/13 02:32:59;;;;;;;45.30;25.57;;;6.20;99.90;;;6.18;69.85;94647.81;5058832;28;20479;-60
2023/12/13 02:35:26;;;;;;;43.90;24.80;;;6.30;99.90;;;6.20;70.17;94638.09;5060752;28;20447;-68
2023/12/13 02:37:54;;;;;;;47.90;26.20;;;6.30;99.90;;;6.23;70.00;94627.44;5053161;28;20467;-66
2023/12/13 02:40:23;;;;;;;45.17;27.03;;;6.30;99.90;;;6.24;69.37;94618.63;5059110;28;20658;-67
2023/12/13 02:42:50;;;;;;;45.30;24.47;;;6.30;99.90;;;6.26;69.27;94601.06;5057890;28;20475;-59
2023/12/13 02:45:19;;;;;;;48.67;24.60;;;6.40;99.90;;;6.22;69.27;94612.69;5062025;28;20500;-61
2023/12/13 02:47:49;;;;;;;57.13;27.17;;;6.30;99.90;;;6.19;69.72;94620.78;5059560;28;20529;-60
2023/12/13 02:50:17;;;;;;;49.10;24.70;;;6.30;99.90;;;6.16;69.86;94627.06;5063881;28;20452;-66
2023/12/13 02:52:44;;;;;;;45.47;25.67;;;6.30;99.90;;;6.18;69.89;94625.16;5061233;28;20471;-60
2023/12/13 02:55:11;;;;;;;54.13;24.00;;;6.30;99.90;;;6.18;70.02;94625.16;5059788;28;20455;-66
2023/12/13 02:57:40;;;;;;;52.00;25.10;;;6.30;99.90;;;6.19;70.45;94626.00;5057630;28;20479;-60
2023/12/13 03:00:09;;;;;;;50.47;26.10;;;6.30;99.90;;;6.19;70.00;94631.22;5059372;28;20541;-66
2023/12/13 03:02:37;;;;;;;47.97;25.90;;;6.30;99.90;;;6.20;69.51;94625.88;5060224;28;20471;-60
2023/12/13 03:05:05;;;;;;;55.40;28.57;;;6.30;99.90;;;6.23;69.77;94624.81;5053970;28;20865;-67
2023/12/13 03:07:33;;;;;;;57.10;28.30;;;6.30;99.90;;;6.20;69.88;94615.44;5058868;28;20493;-67
2023/12/13 03:10:00;;;;;;;53.00;27.57;;;6.30;99.90;;;6.18;69.71;94624.31;5060543;28;20451;-61
2023/12/13 03:12:27;;;;;;;51.53;26.67;;;6.30;99.90;;;6.16;69.51;94621.81;5054452;28;20479;-67
2023/12/13 03:14:56;;;;;;;46.33;25.90;;;6.30;99.90;;;6.16;69.78;94627.06;5059095;28;20895;-59
2023/12/13 03:17:23;;;;;;;48.70;26.80;;;6.30;99.90;;;6.17;69.60;94630.50;5060065;28;20463;-60
2023/12/13 03:19:51;;;;;;;59.63;28.10;;;6.30;99.90;;;6.18;69.18;94640.84;5057574;28;20487;-61
2023/12/13 03:22:18;;;;;;;47.03;26.80;;;6.30;99.90;;;6.17;69.63;94647.00;5058403;28;20493;-60
2023/12/13 03:24:45;;;;;;;49.20;23.73;;;6.30;99.90;;;6.17;69.23;94638.34;5060326;28;20451;-60
2023/12/13 03:27:13;;;;;;;46.73;24.60;;;6.30;99.90;;;6.16;69.45;94642.72;5053817;28;20965;-67
2023/12/13 03:29:40;;;;;;;47.70;25.23;;;6.30;99.90;;;6.16;69.22;94647.13;5058572;28;20459;-61
2023/12/13 03:32:09;;;;;;;43.13;24.37;;;6.30;99.90;;;6.14;69.06;94643.81;5060385;28;20471;-67
2023/12/13 03:34:36;;;;;;;49.03;25.40;;;6.30;99.90;;;6.10;69.29;94628.38;5054422;28;21003;-60
2023/12/13 03:37:06;;;;;;;38.43;22.73;;;6.20;99.90;;;6.07;69.21;94631.22;5058232;28;20489;-66
2023/12/13 03:39:34;;;;;;;42.30;22.77;;;6.20;99.90;;;6.03;69.35;94632.41;5060468;28;20482;-67
2023/12/13 03:42:01;;;;;;;45.10;23.97;;;6.20;99.90;;;6.01;69.21;94641.28;5058254;28;20481;-61
2023/12/13 03:44:28;;;;;;;50.30;22.70;;;6.10;99.90;;;5.98;69.22;94642.38;5058176;28;20517;-67
2023/12/13 03:46:55;;;;;;;39.03;22.30;;;6.10;99.90;;;5.97;69.31;94638.09;5060130;28;20960;-66
2023/12/13 03:49:24;;;;;;;37.97;21.97;;;6.10;99.90;;;5.97;69.29;94643.31;5058026;28;20479;-60
2023/12/13 03:51:52;;;;;;;38.80;22.33;;;6.10;99.90;;;5.96;69.53;94633.78;5058455;28;20977;-61
2023/12/13 03:54:19;;;;;;;36.53;21.87;;;6.10;99.90;;;5.94;69.90;94627.84;5060351;28;20863;-60
2023/12/13 03:56:46;;;;;;;42.77;22.70;;;6.10;99.90;;;5.94;70.19;94627.84;5058019;28;20505;-68
2023/12/13 03:59:13;;;;;;;40.20;22.37;;;6.00;99.90;;;5.90;70.01;94626.41;5057988;28;21013;-60
2023/12/13 04:01:41;;;;;;;45.77;23.93;;;6.00;99.90;;;5.88;70.01;94629.16;5060749;28;20553;-68
2023/12/13 04:04:08;;;;;;;36.43;21.03;;;6.00;99.90;;;5.89;70.13;94628.19;5065680;28;20486;-67
2023/12/13 04:06:36;;;;;;;39.73;22.10;;;6.00;99.90;;;5.90;70.02;94616.81;5062364;28;20522;-66
2023/12/13 04:09:04;;;;;;;38.50;22.00;;;6.00;99.90;;;5.97;70.17;94600.72;5066431;28;20831;-67
2023/12/13 04:11:31;;;;;;;43.00;23.30;;;6.10;99.90;;;5.99;70.03;94610.06;5063450;28;20471;-59
2023/12/13 04:13:59;;;;;;;42.67;23.40;;;6.10;99.90;;;5.98;70.70;94598.00;5063864;28;20501;-61
2023/12/13 04:16:26;;;;;;;40.57;21.87;;;6.10;99.90;;;5.98;70.72;94605.81;5062128;28;20450;-62
2023/12/13 04:18:53;;;;;;;49.73;24.47;;;6.10;99.90;;;5.98;70.41;94595.38;5064011;28;20494;-67
2023/12/13 04:21:21;;;;;;;41.33;22.50;;;6.10;99.90;;;5.99;70.53;94604.84;5065289;28;20475;-67
2023/12/13 04:23:49;;;;;;;40.60;23.90;;;6.10;99.90;;;6.00;70.39;94596.09;5064337;28;20475;-67
2023/12/13 04:26:17;;;;;;;40.27;22.87;;;6.10;99.90;;;6.05;70.56;94587.91;5061604;28;20448;-66
2023/12/13 04:28:44;;;;;;;39.90;23.03;;;6.10;99.90;;;6.07;70.11;94581.63;5064664;28;20471;-61
2023/12/13 04:31:12;;;;;;;34.77;22.33;;;6.20;99.90;;;6.08;70.08;94572.81;5060128;28;20470;-67
2023/12/13 04:33:39;;;;;;;60.97;26.67;;;6.10;99.90;;;6.04;69.85;94576.63;5062179;28;20470;-68
2023/12/13 04:36:08;;;;;;;38.40;22.97;;;6.20;99.90;;;6.01;70.51;94566.44;5059397;28;21413;-61
2023/12/13 04:38:37;;;;;;;50.53;26.07;;;6.10;99.90;;;5.99;70.41;94578.75;5061799;28;20991;-61
2023/12/13 04:41:06;;;;;;;58.50;24.40;;;6.10;99.90;;;5.99;69.95;94572.72;5061805;28;20451;-59
2023/12/13 04:43:33;;;;;;;43.33;23.50;;;6.10;99.90;;;5.98;69.66;94582.34;5060434;28;20472;-66
2023/12/13 04:46:01;;;;;;;52.40;24.17;;;6.10;99.90;;;6.00;69.68;94585.66;5062960;28;20473;-66
2023/12/13 04:48:28;;;;;;;47.27;23.97;;;6.10;99.90;;;6.02;69.58;94572.47;5062206;28;20534;-67
2023/12/13 04:50:55;;;;;;;44.03;25.23;;;6.10;99.90;;;6.01;70.37;94565.59;5060110;28;20913;-60
2023/12/13 04:53:25;;;;;;;46.07;24.53;;;6.10;99.90;;;5.97;70.24;94579.84;5063645;28;20558;-67
2023/12/13 04:55:53;;;;;;;54.30;24.97;;;6.10;99.90;;;5.96;69.78;94575.53;5062701;28;20505;-66
2023/12/13 04:58:22;;;;;;;38.07;23.30;;;6.10;99.90;;;5.95;69.40;94558.19;5060500;28;20480;-60
2023/12/13 05:00:49;;;;;;;44.53;25.63;;;6.10;99.90;;;5.91;69.85;94557.63;5060770;28;20505;-60
2023/12/13 05:03:18;;;;;;;46.30;26.30;;;6.00;99.90;;;5.84;69.79;94583.38;5061965;28;20547;-59
2023/12/13 05:05:48;;;;;;;48.93;25.63;;;6.00;99.90;;;5.79;70.53;94571.59;5059802;28;20459;-60
2023/12/13 05:08:16;;;;;;;43.97;26.20;;;6.00;99.90;;;5.74;70.81;94551.91;5061777;28;20483;-60
2023/12/13 05:10:44;;;;;;;45.17;25.70;;;5.90;99.90;;;5.68;70.85;94559.38;5062503;28;20459;-60
2023/12/13 05:13:13;;;;;;;53.00;26.60;;;5.80;99.90;;;5.66;70.48;94563.91;5056514;28;20484;-60
2023/12/13 05:15:42;;;;;;;42.97;24.07;;;5.80;99.90;;;5.63;70.99;94567.56;5060826;28;20724;-60
2023/12/13 05:18:10;;;;;;;52.20;24.63;;;5.80;99.90;;;5.61;70.28;94574.69;5063290;28;20474;-67
2023/12/13 05:20:37;;;;;;;46.43;26.30;;;5.70;99.90;;;5.61;70.61;94566.88;5063441;28;20522;-60
2023/12/13 05:23:05;;;;;;;47.47;25.57;;;5.70;99.90;;;5.62;70.44;94557.25;5063991;28;20523;-66
2023/12/13 05:25:33;;;;;;;44.93;26.23;;;5.80;99.90;;;5.64;70.97;94558.81;5060436;28;20456;-61
2023/12/13 05:28:01;;;;;;;39.83;24.30;;;5.70;99.90;;;5.65;70.14;94542.19;5061112;28;20546;-60
2023/12/13 05:30:28;;;;;;;50.43;24.73;;;5.80;99.90;;;5.66;70.44;94536.03;5062251;28;20447;-60
2023/12/13 05:32:57;;;;;;;55.57;26.40;;;5.80;99.90;;;5.67;70.39;94547.28;5059079;28;20476;-68
2023/12/13 05:35:24;;;;;;;43.43;25.90;;;5.80;99.90;;;5.65;70.41;94539.56;5061914;28;20451;-68
2023/12/13 05:37:52;;;;;;;43.03;22.40;;;5.80;99.90;;;5.65;70.33;94555.22;5061565;28;20481;-67
2023/12/13 05:40:20;;;;;;;43.73;22.63;;;5.80;99.90;;;5.65;70.35;94560.44;5058649;28;20523;-68
2023/12/13 05:42:48;;;;;;;37.00;23.47;;;5.80;99.90;;;5.68;70.47;94575.88;5060968;28;20469;-67
2023/12/13 05:45:18;;;;;;;47.97;25.73;;;5.80;99.90;;;5.71;70.42;94580.03;5061625;28;20477;-67
2023/12/13 05:47:46;;;;;;;38.87;23.57;;;5.80;99.90;;;5.73;70.53;94581.59;5056464;28;20476;-67
2023/12/13 05:50:16;;;;;;;45.90;23.43;;;5.90;99.90;;;5.77;70.40;94579.56;5060155;28;20447;-67
2023/12/13 05:52:44;;;;;;;41.87;23.53;;;5.90;99.90;;;5.81;70.96;94574.94;5063044;28;20826;-68
2023/12/13 05:55:12;;;;;;;46.47;24.80;;;5.90;99.90;;;5.84;70.99;94569.47;5062742;28;20506;-61
2023/12/13 05:57:39;;;;;;;41.43;22.80;;;5.90;99.90;;;5.87;71.23;94559.66;5060046;28;20842;-68
2023/12/13 06:00:08;;;;;;;45.60;24.87;;;5.90;99.90;;;5.90;70.69;94548.97;5061860;28;20518;-67
2023/12/13 06:02:36;;;;;;;37.47;21.77;;;6.00;99.90;;;5.98;70.60;94540.56;5058953;28;20460;-69
2023/12/13 06:05:04;;;;;;;43.80;22.80;;;6.00;99.90;;;6.05;70.35;94526.06;5059194;28;20566;-61
2023/12/13 06:07:34;;;;;;;40.53;22.90;;;6.10;99.90;;;6.08;71.23;94527.63;5060363;28;21101;-61
2023/12/13 06:10:02;;;;;;;37.13;23.80;;;6.10;99.90;;;6.09;71.11;94537.94;5060197;28;20878;-67
2023/12/13 06:12:29;;;;;;;46.07;24.00;;;6.20;99.90;;;6.10;70.28;94544.81;5061271;28;20470;-68
2023/12/13 06:14:58;;;;;;;42.60;25.07;;;6.20;99.90;;;6.14;70.85;94547.19;5059368;28;21117;-67
2023/12/13 06:17:25;;;;;;;39.80;23.00;;;6.20;99.90;;;6.18;70.60;94557.28;5060349;28;20464;-60
2023/12/13 06:19:53;;;;;;;39.77;23.60;;;6.30;99.90;;;6.23;71.26;94542.06;5061363;28;20925;-66
2023/12/13 06:22:21;;;;;;;41.30;23.30;;;6.30;99.90;;;6.27;70.49;94533.06;5058952;28;21011;-60
2023/12/13 06:24:50;;;;;;;42.73;22.73;;;6.40;99.90;;;6.33;70.86;94520.44;5058905;28;20459;-60
2023/12/13 06:27:18;;;;;;;39.57;23.10;;;6.40;99.90;;;6.39;70.92;94517.34;5061925;28;20463;-68
2023/12/13 06:29:45;;;;;;;43.90;24.30;;;6.50;99.90;;;6.45;70.07;94512.44;5059978;28;20887;-61
2023/12/13 06:32:13;;;;;;;55.70;22.30;;;6.50;99.90;;;6.50;70.78;94527.75;5061368;28;20479;-61
2023/12/13 06:34:42;;;;;;;45.00;23.03;;;6.60;99.90;;;6.55;70.79;94532.59;5060746;28;20459;-68
2023/12/13 06:37:09;;;;;;;36.27;20.50;;;6.60;99.90;;;6.61;70.63;94537.34;5060249;28;20475;-69
2023/12/13 06:39:37;;;;;;;37.53;21.77;;;6.70;99.90;;;6.66;70.35;94539.56;5058816;28;20582;-68
2023/12/13 06:42:08;;;;;;;47.80;22.87;;;6.70;99.90;;;6.69;70.19;94508.78;5061010;28;20475;-60
2023/12/13 06:44:35;;;;;;;35.50;22.13;;;6.80;99.90;;;6.76;70.01;94503.91;5059742;28;20522;-61
2023/12/13 06:47:03;;;;;;;38.97;20.93;;;6.80;99.90;;;6.77;70.49;94506.41;5058331;28;20467;-68
2023/12/13 06:49:32;;;;;;;34.27;19.80;;;6.80;99.90;;;6.80;69.85;94505.28;5061066;28;20474;-66
2023/12/13 06:51:59;;;;;;;41.33;22.17;;;6.90;99.90;;;6.86;69.66;94496.13;5060135;28;20490;-61
2023/12/13 06:54:28;;;;;;;41.70;23.83;;;6.90;99.90;;;6.89;70.18;94488.84;5058080;28;20456;-67
2023/12/13 06:56:55;;;;;;;47.43;28.50;;;7.00;99.90;;;6.96;69.63;94497.03;5060475;28;20886;-67
2023/12/13 06:59:24;;;;;;;43.53;25.17;;;7.00;99.90;;;7.00;69.81;94495.81;5060368;28;20498;-61
2023/12/13 07:01:51;;;;;;;43.17;22.70;;;7.10;99.90;;;7.04;69.53;94512.91;5058478;28;20466;-67
2023/12/13 07:04:19;;;;;;;45.80;24.57;;;7.10;99.90;;;7.09;69.27;94505.50;5057751;28;20478;-67
2023/12/13 07:06:46;;;;;;;45.87;30.27;;;7.10;99.90;;;7.15;69.31;94504.19;5058588;28;20537;-61
2023/12/13 07:09:18;;;;;;;46.60;26.97;;;7.20;99.90;;;7.20;69.90;94501.19;5061123;28;20538;-61
2023/12/13 07:11:47;;;;;;;42.40;24.37;;;7.20;99.90;;;7.26;69.16;94503.28;5061141;28;20935;-61
2023/12/13 07:14:14;;;;;;;39.60;24.77;;;7.30;99.90;;;7.34;69.30;94516.53;5060500;28;20466;-61
2023/12/13 07:16:43;;;;;;;36.97;22.30;;;7.40;99.90;;;7.44;69.19;94509.59;5058878;28;20448;-61
2023/12/13 07:19:11;;;;;;;45.03;23.17;;;7.50;99.90;;;7.52;69.29;94504.53;5061254;28;20464;-67
2023/12/13 07:21:38;;;;;;;35.43;22.50;;;7.60;99.90;;;7.65;68.59;94498.25;5066654;28;21403;-61
2023/12/13 07:24:06;;;;;;;41.73;26.27;;;7.70;99.90;;;7.77;68.79;94489.34;5059229;28;20456;-61
2023/12/13 07:26:34;;;;;;;39.40;23.20;;;7.80;99.90;;;7.88;68.64;94497.13;5058756;28;20467;-60
2023/12/13 07:29:02;;;;;;;47.87;25.93;;;7.90;99.90;;;8.00;67.77;94505.69;5061370;28;20509;-68
2023/12/13 07:31:30;;;;;;;49.37;27.40;;;8.00;99.90;;;8.12;67.93;94490.69;5059796;28;20448;-61
2023/12/13 07:33:59;;;;;;;50.97;29.47;;;8.10;99.90;;;8.22;67.49;94491.53;5058445;28;20443;-68
2023/12/13 07:36:27;;;;;;;52.67;27.80;;;8.30;99.90;;;8.30;67.57;94490.84;5057906;28;20823;-67
2023/12/13 07:38:54;;;;;;;47.20;27.43;;;8.30;99.90;;;8.35;67.64;94480.81;5062873;28;20455;-62
2023/12/13 07:41:22;;;;;;;38.60;24.07;;;8.40;99.90;;;8.41;67.20;94503.00;5063850;28;20593;-61
2023/12/13 07:43:49;;;;;;;42.20;23.80;;;8.40;99.90;;;8.47;66.96;94478.09;5061621;28;20476;-61
2023/12/13 07:46:16;;;;;;;40.80;23.33;;;8.50;99.90;;;8.52;67.25;94488.97;5062909;28;20447;-61
2023/12/13 07:48:44;;;;;;;36.73;22.70;;;8.60;99.90;;;8.61;67.19;94473.28;5063477;28;20479;-67
2023/12/13 07:51:12;;;;;;;38.93;21.93;;;8.60;99.90;;;8.73;66.71;94481.00;5061021;28;20457;-62
2023/12/13 07:53:40;;;;;;;37.23;23.93;;;8.70;99.90;;;8.81;66.26;94498.66;5063058;28;20469;-61
2023/12/13 07:56:09;;;;;;;40.00;23.27;;;8.80;99.90;;;8.89;66.10;94494.41;5063396;28;20451;-60
2023/12/13 07:58:36;;;;;;;40.00;20.30;;;8.90;99.90;;;8.98;66.06;94503.19;5057034;28;20467;-67
2023/12/13 08:01:04;;;;;;;32.17;20.70;;;9.00;99.90;;;9.06;65.88;94507.75;5061824;28;20498;-67
2023/12/13 08:03:32;;;;;;;36.07;21.13;;;9.00;99.90;;;9.11;65.37;94498.50;5063209;28;21015;-61
2023/12/13 08:05:59;;;;;;;37.20;21.60;;;9.10;99.90;;;9.14;65.82;94518.41;5059090;28;20451;-61
2023/12/13 08:08:29;;;;;;;33.40;21.37;;;9.20;99.90;;;9.17;65.21;94512.03;5062611;28;20459;-60
2023/12/13 08:10:57;;;;;;;32.83;20.77;;;9.10;99.90;;;9.16;65.32;94500.72;5063700;28;20458;-68
2023/12/13 08:13:24;;;;;;;39.13;22.20;;;9.20;99.90;;;9.13;65.08;94498.38;5061295;28;20480;-61
2023/12/13 08:15:52;;;;;;;37.47;22.00;;;9.10;99.90;;;9.11;65.05;94474.06;5061277;28;20454;-61
2023/12/13 08:18:19;;;;;;;33.60;21.27;;;9.10;99.90;;;9.13;65.39;94477.38;5063300;28;20474;-61
2023/12/13 08:20:46;;;;;;;33.43;19.27;;;9.10;99.90;;;9.15;65.05;94449.19;5061158;28;20488;-61
2023/12/13 08:23:14;;;;;;;29.73;19.00;;;9.10;99.90;;;9.13;64.53;94451.97;5066467;28;20472;-61
2023/12/13 08:25:42;;;;;;;33.10;19.03;;;9.10;99.90;;;9.10;64.32;94457.50;5069246;28;20455;-61
2023/12/13 08:28:10;;;;;;;26.73;17.40;;;9.10;99.90;;;9.08;64.33;94469.13;5064952;28;20510;-69
2023/12/13 08:30:37;;;;;;;45.50;20.40;;;9.10;99.90;;;9.02;64.56;94473.13;5065333;28;20458;-61
2023/12/13 08:33:04;;;;;;;41.90;21.33;;;9.00;99.90;;;8.95;64.67;94475.47;5058975;28;21087;-68
2023/12/13 08:35:32;;;;;;;38.73;21.70;;;9.00;99.90;;;8.89;64.70;94491.78;5062600;28;20447;-68
2023/12/13 08:37:59;;;;;;;38.67;23.10;;;8.90;99.90;;;8.86;64.89;94494.66;5062175;28;20533;-68
2023/12/13 08:40:26;;;;;;;45.67;25.13;;;8.90;99.90;;;8.84;64.56;94501.81;5065133;28;20498;-67
2023/12/13 08:42:55;;;;;;;40.33;21.70;;;8.80;99.90;;;8.79;65.15;94486.50;5061977;28;20494;-60
2023/12/13 08:45:23;;;;;;;40.17;19.20;;;8.80;99.90;;;8.76;64.63;94493.84;5061007;28;20455;-62
2023/12/13 08:47:50;;;;;;;26.47;17.47;;;8.80;99.90;;;8.73;64.91;94496.72;5062558;28;20463;-68
2023/12/13 08:50:18;;;;;;;28.17;18.47;;;8.80;99.90;;;8.72;64.94;94489.81;5061354;28;20448;-67
2023/12/13 08:52:45;;;;;;;31.77;19.60;;;8.70;99.90;;;8.71;64.90;94506.53;5061029;28;20541;-68
2023/12/13 08:55:12;;;;;;;32.73;19.00;;;8.70;99.90;;;8.71;64.94;94490.81;5063087;28;20458;-61
2023/12/13 08:57:39;;;;;;;37.23;17.90;;;8.70;99.90;;;8.69;64.75;94482.22;5061109;28;20483;-61
2023/12/13 09:00:10;;;;;;;34.93;17.83;;;8.70;99.90;;;8.68;65.22;94493.69;5061731;28;20451;-67
2023/12/13 09:02:38;;;;;;;32.03;18.27;;;8.70;99.90;;;8.69;64.80;94492.72;5060104;28;20544;-61
2023/12/13 09:05:07;;;;;;;25.77;17.93;;;8.70;99.90;;;8.69;64.71;94476.97;5061835;28;20459;-67
2023/12/13 09:07:35;;;;;;;28.07;17.83;;;8.70;99.90;;;8.68;64.99;94468.31;5063091;28;20471;-68
2023/12/13 09:10:03;;;;;;;42.97;20.83;;;8.70;99.90;;;8.66;64.63;94475.50;5058254;28;20848;-66
2023/12/13 09:12:31;;;;;;;33.97;19.13;;;8.70;99.90;;;8.69;64.63;94458.63;5062359;28;20491;-67
2023/12/13 09:14:58;;;;;;;29.70;18.77;;;8.70;99.90;;;8.73;64.67;94470.50;5064034;28;20451;-61
2023/12/13 09:17:27;;;;;;;32.60;18.30;;;8.70;99.90;;;8.78;64.55;94444.69;5062733;28;20633;-67
2023/12/13 09:19:55;;;;;;;32.43;19.67;;;8.80;99.90;;;8.87;64.52;94450.91;5064766;28;20452;-61
2023/12/13 09:22:22;;;;;;;33.03;20.77;;;8.80;99.90;;;8.95;64.25;94443.16;5062587;28;20506;-67
2023/12/13 09:24:50;;;;;;;30.10;19.60;;;8.90;99.90;;;9.01;64.04;94436.53;5062100;28;20504;-67
2023/12/13 09:27:17;;;;;;;35.67;21.20;;;9.00;99.90;;;9.09;64.47;94434.88;5061824;28;20520;-67
2023/12/13 09:29:44;;;;;;;41.47;23.50;;;9.00;99.90;;;9.22;64.15;94445.03;5061636;28;20563;-66
2023/12/13 09:32:12;;;;;;;45.87;24.80;;;9.20;99.90;;;9.36;63.83;94440.28;5063651;28;20468;-61
2023/12/13 09:34:41;;;;;;;38.30;22.80;;;9.30;99.90;;;9.48;63.53;94420.78;5060413;28;20483;-61
2023/12/13 09:37:09;;;;;;;39.77;22.87;;;9.40;99.90;;;9.56;63.46;94447.16;5062166;28;20475;-67
2023/12/13 09:39:37;;;;;;;44.67;25.57;;;9.50;99.90;;;9.62;63.49;94451.81;5060055;28;20447;-67
2023/12/13 09:42:05;;;;;;;164.40;65.83;;;9.60;99.90;;;9.72;63.13;94440.47;5059504;28;20545;-61
2023/12/13 09:44:35;;;;;;;99.30;39.33;;;9.60;99.90;;;9.78;62.96;94417.06;5061660;28;20504;-61
2023/12/13 09:47:04;;;;;;;34.23;19.53;;;9.70;99.90;;;9.89;62.73;94409.97;5060577;28;20529;-60
2023/12/13 09:49:31;;;;;;;36.37;20.67;;;9.80;99.90;;;10.03;62.73;94417.34;5058939;28;20459;-61
2023/12/13 09:52:00;;;;;;;49.23;21.30;;;9.90;99.90;;;10.19;62.56;94400.91;5061412;28;20471;-61
2023/12/13 09:54:27;;;;;;;28.60;17.50;;;10.10;99.90;;;10.36;61.74;94409.81;5061276;28;20515;-68
2023/12/13 09:56:55;;;;;;;38.63;19.10;;;10.30;99.90;;;10.50;61.29;94409.31;5059018;28;20467;-67
2023/12/13 09:59:22;;;;;;;34.80;19.10;;;10.40;99.90;;;10.62;61.02;94393.28;5060881;28;21006;-67
2023/12/13 10:01:49;;;;;;;32.83;18.50;;;10.50;99.60;;;10.74;60.77;94385.00;5059820;28;20501;-67
2023/12/13 10:04:17;;;;;;;37.47;19.37;;;10.70;99.40;;;10.89;60.57;94381.81;5059134;28;20534;-68
2023/12/13 10:06:46;;;;;;;44.80;22.83;;;10.80;99.50;;;11.01;59.69;94362.16;5060707;28;20462;-65
2023/12/13 10:09:15;;;;;;;44.93;21.23;;;10.90;98.60;;;11.00;59.56;94378.09;5060313;28;20447;-66
2023/12/13 10:11:42;;;;;;;37.27;20.93;;;10.90;98.10;;;10.97;59.31;94373.97;5058689;28;20461;-61
2023/12/13 10:14:09;;;;;;;42.87;21.43;;;10.90;98.20;;;10.97;58.87;94350.31;5063668;28;20466;-62
2023/12/13 10:16:39;;;;;;;50.50;19.30;;;10.90;97.60;;;10.90;59.69;94360.59;5061659;28;20534;-61
2023/12/13 10:19:07;;;;;;;46.57;21.27;;;10.90;98.00;;;10.83;59.44;94335.06;5055316;28;20486;-66